CheckWX is a tool to help pilots better visualize weather data.  It is not intended as a substitute for an official pre-flight weather briefing.

15:33:25 UTC

FMNN TAF
Fascene Airport
Nosy Be, Madagascar
TAF FMNN 171100Z 1712/1812 26010KT 9999 SCT020 BECMG 1718/1721 06005KT

Aug-17@
12:00 UTC

Aug-17 @ 12:00 UTC

Aug-17@
18:00 UTC

Aug-17 @ 18:00 UTC

TAF FMNN 171100Z 1712/1812 26010KT 9999 SCT020
Wind
  • 260° at 10 KTS
Cloud Levels
  • Scattered at 2,000' AGL

Aug-17@
18:00 UTC

Aug-17 @ 18:00 UTC

Aug-18@
12:00 UTC

Aug-18 @ 12:00 UTC

BECMG 1718/1721 06005KT

Becoming

Becoming Conditions expected by Sat, Aug 17, 2019 @ 21:00 UTC

Wind
  • 060° at 5 KTS
Cloud Levels
  • Scattered at 2,000' AGL